createdAt,value
2022-11-07T00:03:04.890Z,97.98
2022-11-07T00:08:06.820Z,97.88
2022-11-07T00:13:14.476Z,97.83
2022-11-07T00:18:16.608Z,97.78
2022-11-07T00:23:18.472Z,97.81
2022-11-07T00:28:20.416Z,97.66
2022-11-07T00:33:22.325Z,97.59
2022-11-07T00:38:24.169Z,97.50
2022-11-07T00:43:26.426Z,97.34
2022-11-07T00:48:29.083Z,97.17
2022-11-07T00:53:30.909Z,97.05
2022-11-07T00:58:33.147Z,97.15
2022-11-07T01:03:53.859Z,97.37
2022-11-07T01:08:56.766Z,97.43
2022-11-07T01:14:01.206Z,97.11
2022-11-07T01:19:03.784Z,97.54
2022-11-07T01:24:08.305Z,97.41
2022-11-07T01:29:11.000Z,97.24
2022-11-07T01:34:13.659Z,97.27
2022-11-07T01:39:15.537Z,97.23
2022-11-07T01:44:17.363Z,97.25
2022-11-07T01:49:35.192Z,97.41
2022-11-07T01:54:44.628Z,97.39
2022-11-07T01:59:47.448Z,97.33
2022-11-07T02:04:49.429Z,97.51
2022-11-07T02:09:53.375Z,97.31
2022-11-07T02:14:56.466Z,97.26
2022-11-07T02:19:58.498Z,97.29
2022-11-07T02:25:09.219Z,97.17
2022-11-07T02:30:20.619Z,96.96
2022-11-07T02:35:37.487Z,97.14
2022-11-07T02:40:40.411Z,97.40
2022-11-07T02:45:45.309Z,97.28
2022-11-07T02:50:47.322Z,97.15
2022-11-07T02:55:49.202Z,97.04
2022-11-07T03:00:51.052Z,97.06
2022-11-07T03:05:52.943Z,96.97
2022-11-07T03:10:54.970Z,96.96
2022-11-07T03:15:57.006Z,97.04
2022-11-07T03:20:58.906Z,96.95
2022-11-07T03:26:00.724Z,96.98
2022-11-07T03:31:04.405Z,97.13
2022-11-07T03:36:06.550Z,97.29
2022-11-07T03:41:08.543Z,97.51
2022-11-07T03:46:10.464Z,97.66
2022-11-07T03:51:12.608Z,97.73
2022-11-07T03:56:14.427Z,97.94
2022-11-07T04:01:16.330Z,98.08
2022-11-07T04:06:18.263Z,98.11
2022-11-07T04:11:39.149Z,98.23
2022-11-07T04:17:02.377Z,98.38
2022-11-07T04:22:04.198Z,98.42
2022-11-07T04:27:24.893Z,98.42
2022-11-07T04:32:26.721Z,98.51
2022-11-07T04:37:28.529Z,98.59
2022-11-07T04:42:30.394Z,98.78
2022-11-07T04:47:36.430Z,98.81
2022-11-07T04:52:41.477Z,98.72
2022-11-07T04:57:43.403Z,98.96
2022-11-07T05:02:46.529Z,98.98
2022-11-07T05:07:48.721Z,98.97
2022-11-07T05:12:51.023Z,99.17
2022-11-07T05:17:52.854Z,99.33
2022-11-07T05:23:14.726Z,99.56
2022-11-07T05:28:30.288Z,99.86
2022-11-07T05:33:36.131Z,100.00
2022-11-07T05:38:40.478Z,100.00
2022-11-07T05:43:42.528Z,100.00
2022-11-07T05:48:44.414Z,100.00
2022-11-07T05:53:46.213Z,100.00
2022-11-07T05:58:48.030Z,100.00
2022-11-07T06:03:49.817Z,100.00
2022-11-07T06:08:51.626Z,100.00
2022-11-07T06:13:54.721Z,100.00
2022-11-07T06:18:57.010Z,100.00
2022-11-07T06:23:59.482Z,100.00
2022-11-07T06:29:01.320Z,100.00
2022-11-07T06:34:03.223Z,99.69
2022-11-07T06:39:07.559Z,99.17
2022-11-07T06:44:09.331Z,98.29
2022-11-07T06:49:11.403Z,97.07
2022-11-07T06:54:13.505Z,96.95
2022-11-07T06:59:17.417Z,96.45
2022-11-07T07:04:25.766Z,95.62
2022-11-07T07:09:33.439Z,94.90
2022-11-07T07:14:35.213Z,94.46
2022-11-07T07:19:38.527Z,93.88
2022-11-07T07:24:40.463Z,92.91
2022-11-07T07:29:42.362Z,92.64
2022-11-07T07:34:44.184Z,91.86
2022-11-07T07:39:47.091Z,91.49
2022-11-07T07:44:51.210Z,90.94
2022-11-07T07:49:53.018Z,90.07
2022-11-07T07:54:56.235Z,90.04
2022-11-07T08:00:00.427Z,89.10
2022-11-07T08:05:05.391Z,88.44
2022-11-07T08:10:35.032Z,87.68
2022-11-07T08:15:33.964Z,87.61
2022-11-07T08:20:35.829Z,87.23
2022-11-07T08:25:39.344Z,86.84
2022-11-07T08:31:04.294Z,86.25
2022-11-07T08:36:07.469Z,85.30
2022-11-07T08:41:09.502Z,84.96
2022-11-07T08:46:11.447Z,83.94
2022-11-07T08:51:13.285Z,84.29
2022-11-07T08:56:17.237Z,83.91
2022-11-07T09:01:19.422Z,83.17
2022-11-07T09:06:23.883Z,82.88
2022-11-07T09:11:26.789Z,83.20
2022-11-07T09:16:28.619Z,83.36
2022-11-07T09:21:32.341Z,82.64
2022-11-07T09:26:34.258Z,82.45
2022-11-07T09:31:36.462Z,82.76
2022-11-07T09:36:38.328Z,82.87
2022-11-07T09:42:03.472Z,82.57
2022-11-07T09:47:19.353Z,82.63
2022-11-07T09:52:41.227Z,82.59
2022-11-07T09:57:43.186Z,81.65
2022-11-07T10:02:56.721Z,81.46
2022-11-07T10:08:07.123Z,82.03
2022-11-07T10:13:27.884Z,81.98
2022-11-07T10:18:38.909Z,82.12
2022-11-07T10:23:43.444Z,82.24
2022-11-07T10:28:49.114Z,81.50
2022-11-07T10:34:05.051Z,81.79
2022-11-07T10:39:16.823Z,79.51
2022-11-07T10:44:25.143Z,80.32
2022-11-07T10:49:32.222Z,80.64
2022-11-07T10:54:34.124Z,81.03
2022-11-07T10:59:40.163Z,79.70
2022-11-07T11:04:51.005Z,80.41
2022-11-07T11:09:55.981Z,79.28
2022-11-07T11:15:04.087Z,79.83
2022-11-07T11:20:09.561Z,79.57
2022-11-07T11:25:11.447Z,78.31
2022-11-07T11:30:22.532Z,78.62
2022-11-07T11:35:43.599Z,78.20
2022-11-07T11:40:59.255Z,77.97
2022-11-07T11:46:16.688Z,78.42
2022-11-07T11:51:38.988Z,78.81
2022-11-07T11:56:43.573Z,77.80
2022-11-07T12:01:55.702Z,77.75
2022-11-07T12:07:25.813Z,77.52
2022-11-07T12:12:46.612Z,76.94
2022-11-07T12:18:07.064Z,76.97
2022-11-07T12:23:39.895Z,78.01
2022-11-07T12:29:03.451Z,78.05
2022-11-07T12:34:36.107Z,77.31
2022-11-07T12:40:01.375Z,76.85
2022-11-07T12:45:03.233Z,76.41
2022-11-07T12:50:22.336Z,77.07
2022-11-07T12:55:33.011Z,77.50
2022-11-07T13:00:35.759Z,77.26
2022-11-07T13:06:03.017Z,76.97
2022-11-07T13:11:23.500Z,77.21
2022-11-07T13:16:30.658Z,77.76
2022-11-07T13:21:43.047Z,77.32
2022-11-07T13:26:47.433Z,77.26
2022-11-07T13:32:14.308Z,76.79
2022-11-07T13:37:20.267Z,76.87
2022-11-07T13:42:28.555Z,76.73
2022-11-07T13:47:40.593Z,77.04
2022-11-07T13:53:05.056Z,77.18
2022-11-07T13:58:14.500Z,76.96
2022-11-07T14:03:29.533Z,77.15
2022-11-07T14:08:35.699Z,77.33
2022-11-07T14:13:41.570Z,77.36
2022-11-07T14:18:52.267Z,77.41
2022-11-07T14:23:54.555Z,77.67
2022-11-07T14:28:58.008Z,77.97
2022-11-07T14:34:22.150Z,78.45
2022-11-07T14:39:34.338Z,78.56
2022-11-07T14:44:54.407Z,78.44
2022-11-07T14:49:57.879Z,78.53
2022-11-07T14:55:30.971Z,78.94
2022-11-07T15:00:35.309Z,79.40
2022-11-07T15:05:37.147Z,79.52
2022-11-07T15:10:39.897Z,79.81
2022-11-07T15:15:41.790Z,80.34
2022-11-07T15:20:43.719Z,80.76
2022-11-07T15:25:59.765Z,81.20
2022-11-07T15:31:01.684Z,81.75
2022-11-07T15:36:03.692Z,82.12
2022-11-07T15:41:05.754Z,82.48
2022-11-07T15:46:30.850Z,82.94
2022-11-07T15:51:33.035Z,83.42
2022-11-07T15:56:34.884Z,84.04
2022-11-07T16:01:36.796Z,84.28
2022-11-07T16:06:45.663Z,84.57
2022-11-07T16:11:50.265Z,85.20
2022-11-07T16:16:53.028Z,85.44
2022-11-07T16:21:54.859Z,85.67
2022-11-07T16:26:57.211Z,85.87
2022-11-07T16:31:59.102Z,85.82
2022-11-07T16:37:01.213Z,86.10
2022-11-07T16:42:05.496Z,86.11
2022-11-07T16:47:13.873Z,86.53
2022-11-07T16:52:18.223Z,86.80
2022-11-07T16:57:20.063Z,87.08
2022-11-07T17:02:24.662Z,87.30
2022-11-07T17:07:26.704Z,87.86
2022-11-07T17:12:28.635Z,88.23
2022-11-07T17:17:30.667Z,88.46
2022-11-07T17:22:32.458Z,88.69
2022-11-07T17:27:34.417Z,88.84
2022-11-07T17:32:36.237Z,88.99
2022-11-07T17:37:38.778Z,89.03
2022-11-07T17:42:40.575Z,89.24
2022-11-07T17:47:45.031Z,89.34
2022-11-07T17:52:47.913Z,89.47
2022-11-07T17:57:49.808Z,89.49
2022-11-07T18:02:52.757Z,89.72
2022-11-07T18:07:54.869Z,90.02
2022-11-07T18:12:57.343Z,90.40
2022-11-07T18:17:59.344Z,90.63
2022-11-07T18:23:01.255Z,90.88
2022-11-07T18:28:03.712Z,91.27
2022-11-07T18:33:05.494Z,91.79
2022-11-07T18:38:07.305Z,91.88
2022-11-07T18:43:11.787Z,92.40
2022-11-07T18:48:14.297Z,92.52
2022-11-07T18:53:17.584Z,92.43
2022-11-07T18:58:20.365Z,92.62
2022-11-07T19:03:22.702Z,92.62
2022-11-07T19:08:24.486Z,92.58
2022-11-07T19:13:27.111Z,92.65
2022-11-07T19:18:28.963Z,92.92
2022-11-07T19:23:31.444Z,92.90
2022-11-07T19:28:35.041Z,93.09
2022-11-07T19:33:37.113Z,93.39
2022-11-07T19:38:38.974Z,93.31
2022-11-07T19:43:42.724Z,93.46
2022-11-07T19:48:44.696Z,93.50
2022-11-07T19:53:46.553Z,93.37
2022-11-07T19:58:48.447Z,93.37
2022-11-07T20:03:52.576Z,93.59
2022-11-07T20:08:54.649Z,93.73
2022-11-07T20:14:01.780Z,93.77
2022-11-07T20:19:05.752Z,94.15
2022-11-07T20:24:11.026Z,94.28
2022-11-07T20:29:13.893Z,94.30
2022-11-07T20:34:19.130Z,93.77
2022-11-07T20:39:21.293Z,93.65
2022-11-07T20:44:23.182Z,94.05
2022-11-07T20:49:25.031Z,94.14
2022-11-07T20:54:29.521Z,93.65
2022-11-07T20:59:32.319Z,94.14
2022-11-07T21:04:49.849Z,94.27
2022-11-07T21:09:56.088Z,94.50
2022-11-07T21:14:57.915Z,94.76
2022-11-07T21:19:59.783Z,94.94
2022-11-07T21:25:04.187Z,95.33
2022-11-07T21:30:07.127Z,95.15
2022-11-07T21:35:09.915Z,95.20
2022-11-07T21:40:12.033Z,95.37
2022-11-07T21:45:13.918Z,96.08
2022-11-07T21:50:42.515Z,95.97
2022-11-07T21:55:39.674Z,96.06
2022-11-07T22:00:41.511Z,96.31
2022-11-07T22:05:44.106Z,96.31
2022-11-07T22:10:46.013Z,96.08
2022-11-07T22:15:49.939Z,96.01
2022-11-07T22:20:55.565Z,96.08
2022-11-07T22:26:10.256Z,96.11
2022-11-07T22:31:15.865Z,96.08
2022-11-07T22:36:18.646Z,95.77
2022-11-07T22:41:25.043Z,95.95
2022-11-07T22:46:30.702Z,95.98
2022-11-07T22:51:35.057Z,96.10
2022-11-07T22:56:37.381Z,96.17
2022-11-07T23:01:42.015Z,96.20
2022-11-07T23:06:44.343Z,96.22
2022-11-07T23:11:47.933Z,96.61
2022-11-07T23:16:53.024Z,96.90
2022-11-07T23:21:56.637Z,96.96
2022-11-07T23:26:59.262Z,96.82
2022-11-07T23:32:01.067Z,97.36
2022-11-07T23:37:03.313Z,97.46
2022-11-07T23:42:05.124Z,97.77
2022-11-07T23:47:27.825Z,97.95
2022-11-07T23:52:29.617Z,98.12
2022-11-07T23:57:56.522Z,98.18
